sensor_id;sensor_type;location;lat;lon;timestamp;P1;durP1;ratioP1;P2;durP2;ratioP2
76552;SDS011;65395;53.168;18.156;2024-03-22T00:01:54;29.70;;;15.30;;
76552;SDS011;65395;53.168;18.156;2024-03-22T00:04:22;26.80;;;15.00;;
76552;SDS011;65395;53.168;18.156;2024-03-22T00:06:49;25.90;;;14.20;;
76552;SDS011;65395;53.168;18.156;2024-03-22T00:09:16;27.40;;;14.80;;
76552;SDS011;65395;53.168;18.156;2024-03-22T00:11:43;25.40;;;13.70;;
76552;SDS011;65395;53.168;18.156;2024-03-22T00:14:11;27.30;;;15.40;;
76552;SDS011;65395;53.168;18.156;2024-03-22T00:16:38;28.40;;;15.10;;
76552;SDS011;65395;53.168;18.156;2024-03-22T00:19:05;28.40;;;14.70;;
76552;SDS011;65395;53.168;18.156;2024-03-22T00:21:32;28.60;;;15.10;;
76552;SDS011;65395;53.168;18.156;2024-03-22T00:23:59;27.40;;;15.40;;
76552;SDS011;65395;53.168;18.156;2024-03-22T00:26:27;27.50;;;14.80;;
76552;SDS011;65395;53.168;18.156;2024-03-22T00:28:55;28.10;;;14.60;;
76552;SDS011;65395;53.168;18.156;2024-03-22T00:31:24;25.90;;;14.50;;
76552;SDS011;65395;53.168;18.156;2024-03-22T00:33:51;26.40;;;14.70;;
76552;SDS011;65395;53.168;18.156;2024-03-22T00:36:18;28.20;;;15.20;;
76552;SDS011;65395;53.168;18.156;2024-03-22T00:38:46;28.50;;;15.50;;
76552;SDS011;65395;53.168;18.156;2024-03-22T00:41:13;26.50;;;14.50;;
76552;SDS011;65395;53.168;18.156;2024-03-22T00:43:40;27.10;;;14.50;;
76552;SDS011;65395;53.168;18.156;2024-03-22T00:46:07;29.80;;;14.70;;
76552;SDS011;65395;53.168;18.156;2024-03-22T00:48:34;30.50;;;16.00;;
76552;SDS011;65395;53.168;18.156;2024-03-22T00:51:02;31.40;;;17.30;;
76552;SDS011;65395;53.168;18.156;2024-03-22T00:53:29;39.20;;;19.30;;
76552;SDS011;65395;53.168;18.156;2024-03-22T00:55:56;47.60;;;20.70;;
76552;SDS011;65395;53.168;18.156;2024-03-22T00:58:26;43.10;;;20.50;;
76552;SDS011;65395;53.168;18.156;2024-03-22T01:00:54;48.90;;;21.50;;
76552;SDS011;65395;53.168;18.156;2024-03-22T01:03:21;46.70;;;21.60;;
76552;SDS011;65395;53.168;18.156;2024-03-22T01:05:49;49.30;;;21.40;;
76552;SDS011;65395;53.168;18.156;2024-03-22T01:08:16;47.40;;;21.00;;
76552;SDS011;65395;53.168;18.156;2024-03-22T01:10:43;50.30;;;22.40;;
76552;SDS011;65395;53.168;18.156;2024-03-22T01:13:10;52.70;;;22.80;;
76552;SDS011;65395;53.168;18.156;2024-03-22T01:15:37;48.50;;;21.90;;
76552;SDS011;65395;53.168;18.156;2024-03-22T01:18:04;50.20;;;22.00;;
76552;SDS011;65395;53.168;18.156;2024-03-22T01:20:31;50.70;;;21.10;;
76552;SDS011;65395;53.168;18.156;2024-03-22T01:22:59;45.50;;;20.70;;
76552;SDS011;65395;53.168;18.156;2024-03-22T01:25:27;53.00;;;23.00;;
76552;SDS011;65395;53.168;18.156;2024-03-22T01:27:55;55.90;;;22.50;;
76552;SDS011;65395;53.168;18.156;2024-03-22T01:30:22;52.10;;;22.30;;
76552;SDS011;65395;53.168;18.156;2024-03-22T01:32:49;55.00;;;23.40;;
76552;SDS011;65395;53.168;18.156;2024-03-22T01:35:16;52.60;;;22.90;;
76552;SDS011;65395;53.168;18.156;2024-03-22T01:37:43;52.50;;;21.80;;
76552;SDS011;65395;53.168;18.156;2024-03-22T01:40:10;47.40;;;21.80;;
76552;SDS011;65395;53.168;18.156;2024-03-22T01:42:37;51.00;;;21.70;;
76552;SDS011;65395;53.168;18.156;2024-03-22T01:45:04;52.20;;;22.30;;
76552;SDS011;65395;53.168;18.156;2024-03-22T01:47:32;52.30;;;21.90;;
76552;SDS011;65395;53.168;18.156;2024-03-22T01:49:59;52.40;;;22.20;;
76552;SDS011;65395;53.168;18.156;2024-03-22T01:52:27;53.90;;;22.70;;
76552;SDS011;65395;53.168;18.156;2024-03-22T01:54:55;53.40;;;21.40;;
76552;SDS011;65395;53.168;18.156;2024-03-22T01:57:23;50.70;;;22.20;;
76552;SDS011;65395;53.168;18.156;2024-03-22T01:59:49;47.60;;;21.80;;
76552;SDS011;65395;53.168;18.156;2024-03-22T02:02:20;52.90;;;22.10;;
76552;SDS011;65395;53.168;18.156;2024-03-22T02:04:49;53.60;;;23.40;;
76552;SDS011;65395;53.168;18.156;2024-03-22T02:07:17;52.70;;;22.50;;
76552;SDS011;65395;53.168;18.156;2024-03-22T02:09:44;52.40;;;23.40;;
76552;SDS011;65395;53.168;18.156;2024-03-22T02:12:11;53.30;;;22.10;;
76552;SDS011;65395;53.168;18.156;2024-03-22T02:14:38;55.00;;;23.10;;
76552;SDS011;65395;53.168;18.156;2024-03-22T02:17:05;55.60;;;23.40;;
76552;SDS011;65395;53.168;18.156;2024-03-22T02:19:32;54.70;;;22.90;;
76552;SDS011;65395;53.168;18.156;2024-03-22T02:21:59;54.20;;;23.60;;
76552;SDS011;65395;53.168;18.156;2024-03-22T02:24:26;58.50;;;24.40;;
76552;SDS011;65395;53.168;18.156;2024-03-22T02:26:53;60.50;;;23.40;;
76552;SDS011;65395;53.168;18.156;2024-03-22T02:29:20;56.10;;;24.70;;
76552;SDS011;65395;53.168;18.156;2024-03-22T02:31:48;56.00;;;23.60;;
76552;SDS011;65395;53.168;18.156;2024-03-22T02:34:15;61.30;;;23.80;;
76552;SDS011;65395;53.168;18.156;2024-03-22T02:36:43;63.70;;;24.00;;
76552;SDS011;65395;53.168;18.156;2024-03-22T02:39:09;52.00;;;22.00;;
76552;SDS011;65395;53.168;18.156;2024-03-22T02:41:37;56.50;;;23.20;;
76552;SDS011;65395;53.168;18.156;2024-03-22T02:44:04;59.00;;;23.60;;
76552;SDS011;65395;53.168;18.156;2024-03-22T02:46:30;60.60;;;23.80;;
76552;SDS011;65395;53.168;18.156;2024-03-22T02:48:57;56.90;;;22.90;;
76552;SDS011;65395;53.168;18.156;2024-03-22T02:51:24;52.30;;;21.70;;
76552;SDS011;65395;53.168;18.156;2024-03-22T02:53:51;55.40;;;23.50;;
76552;SDS011;65395;53.168;18.156;2024-03-22T02:56:18;49.50;;;21.00;;
76552;SDS011;65395;53.168;18.156;2024-03-22T02:58:44;52.30;;;21.90;;
76552;SDS011;65395;53.168;18.156;2024-03-22T03:01:11;47.40;;;20.30;;
76552;SDS011;65395;53.168;18.156;2024-03-22T03:03:38;46.20;;;20.10;;
76552;SDS011;65395;53.168;18.156;2024-03-22T03:06:05;50.90;;;19.60;;
76552;SDS011;65395;53.168;18.156;2024-03-22T03:08:32;50.40;;;21.40;;
76552;SDS011;65395;53.168;18.156;2024-03-22T03:10:58;46.50;;;20.40;;
76552;SDS011;65395;53.168;18.156;2024-03-22T03:13:25;44.90;;;19.10;;
76552;SDS011;65395;53.168;18.156;2024-03-22T03:15:52;44.00;;;18.70;;
76552;SDS011;65395;53.168;18.156;2024-03-22T03:18:19;42.50;;;18.00;;
76552;SDS011;65395;53.168;18.156;2024-03-22T03:20:45;39.20;;;17.90;;
76552;SDS011;65395;53.168;18.156;2024-03-22T03:23:12;42.40;;;18.90;;
76552;SDS011;65395;53.168;18.156;2024-03-22T03:25:39;41.80;;;18.00;;
76552;SDS011;65395;53.168;18.156;2024-03-22T03:28:06;42.30;;;17.80;;
76552;SDS011;65395;53.168;18.156;2024-03-22T03:30:34;39.70;;;17.70;;
76552;SDS011;65395;53.168;18.156;2024-03-22T03:33:01;41.80;;;18.80;;
76552;SDS011;65395;53.168;18.156;2024-03-22T03:35:28;41.50;;;18.20;;
76552;SDS011;65395;53.168;18.156;2024-03-22T03:37:55;38.10;;;17.20;;
76552;SDS011;65395;53.168;18.156;2024-03-22T03:40:22;41.00;;;18.10;;
76552;SDS011;65395;53.168;18.156;2024-03-22T03:42:51;39.10;;;17.80;;
76552;SDS011;65395;53.168;18.156;2024-03-22T03:45:17;39.90;;;18.20;;
76552;SDS011;65395;53.168;18.156;2024-03-22T03:47:44;40.40;;;17.60;;
76552;SDS011;65395;53.168;18.156;2024-03-22T03:50:12;38.60;;;17.60;;
76552;SDS011;65395;53.168;18.156;2024-03-22T03:52:38;39.20;;;17.10;;
76552;SDS011;65395;53.168;18.156;2024-03-22T03:55:05;40.70;;;18.00;;
76552;SDS011;65395;53.168;18.156;2024-03-22T03:57:32;39.90;;;17.70;;
76552;SDS011;65395;53.168;18.156;2024-03-22T03:59:59;36.30;;;15.80;;
76552;SDS011;65395;53.168;18.156;2024-03-22T04:02:26;34.30;;;16.30;;
76552;SDS011;65395;53.168;18.156;2024-03-22T04:04:53;35.90;;;16.30;;
76552;SDS011;65395;53.168;18.156;2024-03-22T04:07:20;39.70;;;17.10;;
76552;SDS011;65395;53.168;18.156;2024-03-22T04:09:47;35.10;;;16.80;;
76552;SDS011;65395;53.168;18.156;2024-03-22T04:12:14;37.90;;;17.10;;
76552;SDS011;65395;53.168;18.156;2024-03-22T04:14:40;35.40;;;17.20;;
76552;SDS011;65395;53.168;18.156;2024-03-22T04:17:07;37.40;;;16.60;;
76552;SDS011;65395;53.168;18.156;2024-03-22T04:19:34;36.80;;;16.40;;
76552;SDS011;65395;53.168;18.156;2024-03-22T04:22:01;38.90;;;16.50;;
76552;SDS011;65395;53.168;18.156;2024-03-22T04:24:27;36.70;;;16.10;;
76552;SDS011;65395;53.168;18.156;2024-03-22T04:26:54;36.10;;;15.90;;
76552;SDS011;65395;53.168;18.156;2024-03-22T04:29:21;41.70;;;17.20;;
76552;SDS011;65395;53.168;18.156;2024-03-22T04:31:47;37.50;;;17.40;;
76552;SDS011;65395;53.168;18.156;2024-03-22T04:34:14;41.50;;;17.70;;
76552;SDS011;65395;53.168;18.156;2024-03-22T04:36:41;40.60;;;17.30;;
76552;SDS011;65395;53.168;18.156;2024-03-22T04:39:08;38.20;;;16.70;;
76552;SDS011;65395;53.168;18.156;2024-03-22T04:41:36;38.10;;;17.20;;
76552;SDS011;65395;53.168;18.156;2024-03-22T04:44:02;41.90;;;17.20;;
76552;SDS011;65395;53.168;18.156;2024-03-22T04:46:29;38.60;;;16.50;;
76552;SDS011;65395;53.168;18.156;2024-03-22T04:48:56;42.90;;;17.80;;
76552;SDS011;65395;53.168;18.156;2024-03-22T04:51:23;45.50;;;17.20;;
76552;SDS011;65395;53.168;18.156;2024-03-22T04:53:49;42.40;;;17.30;;
76552;SDS011;65395;53.168;18.156;2024-03-22T04:56:16;43.40;;;17.50;;
76552;SDS011;65395;53.168;18.156;2024-03-22T04:58:43;36.50;;;16.10;;
76552;SDS011;65395;53.168;18.156;2024-03-22T05:01:10;40.30;;;15.20;;
76552;SDS011;65395;53.168;18.156;2024-03-22T05:03:38;38.50;;;15.70;;
76552;SDS011;65395;53.168;18.156;2024-03-22T05:06:07;39.80;;;16.70;;
76552;SDS011;65395;53.168;18.156;2024-03-22T05:08:33;35.30;;;15.90;;
76552;SDS011;65395;53.168;18.156;2024-03-22T05:11:00;38.60;;;16.00;;
76552;SDS011;65395;53.168;18.156;2024-03-22T05:13:27;37.70;;;16.10;;
76552;SDS011;65395;53.168;18.156;2024-03-22T05:15:54;38.00;;;15.70;;
76552;SDS011;65395;53.168;18.156;2024-03-22T05:18:21;35.80;;;15.00;;
76552;SDS011;65395;53.168;18.156;2024-03-22T05:20:47;37.60;;;16.60;;
76552;SDS011;65395;53.168;18.156;2024-03-22T05:23:14;39.40;;;15.20;;
76552;SDS011;65395;53.168;18.156;2024-03-22T05:25:42;39.70;;;16.40;;
76552;SDS011;65395;53.168;18.156;2024-03-22T05:28:09;38.10;;;16.00;;
76552;SDS011;65395;53.168;18.156;2024-03-22T05:30:36;35.20;;;15.30;;
76552;SDS011;65395;53.168;18.156;2024-03-22T05:33:03;36.90;;;15.60;;
76552;SDS011;65395;53.168;18.156;2024-03-22T05:35:30;38.80;;;16.20;;
76552;SDS011;65395;53.168;18.156;2024-03-22T05:37:56;35.90;;;15.70;;
76552;SDS011;65395;53.168;18.156;2024-03-22T05:40:23;35.20;;;16.10;;
76552;SDS011;65395;53.168;18.156;2024-03-22T05:42:50;36.10;;;14.50;;
76552;SDS011;65395;53.168;18.156;2024-03-22T05:45:17;34.10;;;14.60;;
76552;SDS011;65395;53.168;18.156;2024-03-22T05:47:44;34.20;;;13.80;;
76552;SDS011;65395;53.168;18.156;2024-03-22T05:50:10;30.60;;;13.80;;
76552;SDS011;65395;53.168;18.156;2024-03-22T05:52:37;30.60;;;13.20;;
76552;SDS011;65395;53.168;18.156;2024-03-22T05:55:04;30.20;;;12.40;;
76552;SDS011;65395;53.168;18.156;2024-03-22T05:57:31;28.50;;;12.40;;
76552;SDS011;65395;53.168;18.156;2024-03-22T05:59:58;29.30;;;12.10;;
76552;SDS011;65395;53.168;18.156;2024-03-22T06:02:25;28.50;;;12.70;;
76552;SDS011;65395;53.168;18.156;2024-03-22T06:04:52;27.70;;;12.50;;
76552;SDS011;65395;53.168;18.156;2024-03-22T06:07:19;25.30;;;11.90;;
76552;SDS011;65395;53.168;18.156;2024-03-22T06:09:45;25.60;;;11.10;;
76552;SDS011;65395;53.168;18.156;2024-03-22T06:12:12;25.00;;;10.70;;
76552;SDS011;65395;53.168;18.156;2024-03-22T06:14:40;25.00;;;10.60;;
76552;SDS011;65395;53.168;18.156;2024-03-22T06:17:07;27.50;;;12.00;;
76552;SDS011;65395;53.168;18.156;2024-03-22T06:19:35;23.50;;;10.30;;
76552;SDS011;65395;53.168;18.156;2024-03-22T06:22:02;22.70;;;10.70;;
76552;SDS011;65395;53.168;18.156;2024-03-22T06:24:30;26.10;;;10.60;;
76552;SDS011;65395;53.168;18.156;2024-03-22T06:26:57;24.50;;;10.90;;
76552;SDS011;65395;53.168;18.156;2024-03-22T06:29:23;23.00;;;10.30;;
76552;SDS011;65395;53.168;18.156;2024-03-22T06:31:53;24.00;;;10.80;;
76552;SDS011;65395;53.168;18.156;2024-03-22T06:34:20;21.90;;;10.00;;
76552;SDS011;65395;53.168;18.156;2024-03-22T06:36:47;22.60;;;10.00;;
76552;SDS011;65395;53.168;18.156;2024-03-22T06:39:14;19.80;;;8.90;;
76552;SDS011;65395;53.168;18.156;2024-03-22T06:41:41;20.30;;;9.00;;
76552;SDS011;65395;53.168;18.156;2024-03-22T06:44:08;20.40;;;9.50;;
76552;SDS011;65395;53.168;18.156;2024-03-22T06:46:39;23.20;;;9.90;;
76552;SDS011;65395;53.168;18.156;2024-03-22T06:49:06;25.60;;;10.20;;
76552;SDS011;65395;53.168;18.156;2024-03-22T06:51:32;21.40;;;9.80;;
76552;SDS011;65395;53.168;18.156;2024-03-22T06:53:59;18.90;;;9.60;;
76552;SDS011;65395;53.168;18.156;2024-03-22T06:56:26;22.60;;;9.60;;
76552;SDS011;65395;53.168;18.156;2024-03-22T06:58:53;20.60;;;9.50;;
76552;SDS011;65395;53.168;18.156;2024-03-22T07:01:20;20.70;;;9.80;;
76552;SDS011;65395;53.168;18.156;2024-03-22T07:03:47;23.60;;;10.00;;
76552;SDS011;65395;53.168;18.156;2024-03-22T07:06:14;22.80;;;11.40;;
76552;SDS011;65395;53.168;18.156;2024-03-22T07:08:41;22.90;;;11.00;;
76552;SDS011;65395;53.168;18.156;2024-03-22T07:11:08;25.10;;;10.70;;
76552;SDS011;65395;53.168;18.156;2024-03-22T07:13:35;27.80;;;11.60;;
76552;SDS011;65395;53.168;18.156;2024-03-22T07:16:02;24.30;;;11.10;;
76552;SDS011;65395;53.168;18.156;2024-03-22T07:18:29;26.00;;;11.50;;
76552;SDS011;65395;53.168;18.156;2024-03-22T07:20:56;24.50;;;11.20;;
76552;SDS011;65395;53.168;18.156;2024-03-22T07:23:27;24.10;;;11.10;;
76552;SDS011;65395;53.168;18.156;2024-03-22T07:25:54;25.00;;;11.60;;
76552;SDS011;65395;53.168;18.156;2024-03-22T07:28:21;26.20;;;11.80;;
76552;SDS011;65395;53.168;18.156;2024-03-22T07:30:48;23.30;;;11.70;;
76552;SDS011;65395;53.168;18.156;2024-03-22T07:33:15;22.40;;;11.00;;
76552;SDS011;65395;53.168;18.156;2024-03-22T07:35:44;27.60;;;11.90;;
76552;SDS011;65395;53.168;18.156;2024-03-22T07:38:10;25.30;;;11.00;;
76552;SDS011;65395;53.168;18.156;2024-03-22T07:40:38;20.90;;;10.80;;
76552;SDS011;65395;53.168;18.156;2024-03-22T07:43:04;23.80;;;11.00;;
76552;SDS011;65395;53.168;18.156;2024-03-22T07:45:34;23.50;;;10.70;;
76552;SDS011;65395;53.168;18.156;2024-03-22T07:48:01;20.40;;;10.20;;
76552;SDS011;65395;53.168;18.156;2024-03-22T07:50:28;22.00;;;10.90;;
76552;SDS011;65395;53.168;18.156;2024-03-22T07:52:55;20.20;;;9.40;;
76552;SDS011;65395;53.168;18.156;2024-03-22T07:55:22;21.90;;;10.00;;
76552;SDS011;65395;53.168;18.156;2024-03-22T07:57:49;20.40;;;9.70;;
76552;SDS011;65395;53.168;18.156;2024-03-22T08:00:17;20.50;;;10.80;;
76552;SDS011;65395;53.168;18.156;2024-03-22T08:02:44;22.60;;;10.20;;
76552;SDS011;65395;53.168;18.156;2024-03-22T08:05:11;20.30;;;10.10;;
76552;SDS011;65395;53.168;18.156;2024-03-22T08:07:38;21.70;;;10.50;;
76552;SDS011;65395;53.168;18.156;2024-03-22T08:10:05;21.70;;;10.20;;
76552;SDS011;65395;53.168;18.156;2024-03-22T08:12:32;20.20;;;10.60;;
76552;SDS011;65395;53.168;18.156;2024-03-22T08:14:59;20.00;;;9.80;;
76552;SDS011;65395;53.168;18.156;2024-03-22T08:17:26;20.30;;;10.30;;
76552;SDS011;65395;53.168;18.156;2024-03-22T08:19:53;19.40;;;10.40;;
76552;SDS011;65395;53.168;18.156;2024-03-22T08:22:19;19.10;;;9.90;;
76552;SDS011;65395;53.168;18.156;2024-03-22T08:24:46;19.40;;;9.90;;
76552;SDS011;65395;53.168;18.156;2024-03-22T08:27:13;18.70;;;10.10;;
76552;SDS011;65395;53.168;18.156;2024-03-22T08:29:40;18.00;;;9.70;;
76552;SDS011;65395;53.168;18.156;2024-03-22T08:32:09;19.60;;;10.10;;
76552;SDS011;65395;53.168;18.156;2024-03-22T08:34:36;22.50;;;10.30;;
76552;SDS011;65395;53.168;18.156;2024-03-22T08:37:02;18.10;;;10.30;;
76552;SDS011;65395;53.168;18.156;2024-03-22T08:39:30;18.50;;;10.30;;
76552;SDS011;65395;53.168;18.156;2024-03-22T08:41:57;23.70;;;10.40;;
76552;SDS011;65395;53.168;18.156;2024-03-22T08:44:24;19.80;;;10.30;;
76552;SDS011;65395;53.168;18.156;2024-03-22T08:46:51;19.50;;;10.70;;
76552;SDS011;65395;53.168;18.156;2024-03-22T08:49:18;19.40;;;10.50;;
76552;SDS011;65395;53.168;18.156;2024-03-22T08:51:45;20.90;;;10.90;;
76552;SDS011;65395;53.168;18.156;2024-03-22T08:54:12;21.00;;;11.70;;
76552;SDS011;65395;53.168;18.156;2024-03-22T08:56:39;19.30;;;10.90;;
76552;SDS011;65395;53.168;18.156;2024-03-22T08:59:06;22.00;;;11.80;;
76552;SDS011;65395;53.168;18.156;2024-03-22T09:01:33;23.20;;;11.60;;
76552;SDS011;65395;53.168;18.156;2024-03-22T09:04:00;19.50;;;11.40;;
76552;SDS011;65395;53.168;18.156;2024-03-22T09:06:27;18.90;;;11.10;;
76552;SDS011;65395;53.168;18.156;2024-03-22T09:08:53;21.00;;;12.00;;
76552;SDS011;65395;53.168;18.156;2024-03-22T09:11:24;20.90;;;11.40;;
76552;SDS011;65395;53.168;18.156;2024-03-22T09:13:52;23.70;;;11.60;;
76552;SDS011;65395;53.168;18.156;2024-03-22T09:16:20;21.10;;;11.00;;
76552;SDS011;65395;53.168;18.156;2024-03-22T09:18:47;21.30;;;11.40;;
76552;SDS011;65395;53.168;18.156;2024-03-22T09:21:14;19.90;;;11.70;;
76552;SDS011;65395;53.168;18.156;2024-03-22T09:23:41;24.70;;;10.90;;
76552;SDS011;65395;53.168;18.156;2024-03-22T09:26:08;20.60;;;11.00;;
76552;SDS011;65395;53.168;18.156;2024-03-22T09:28:35;19.30;;;10.60;;
76552;SDS011;65395;53.168;18.156;2024-03-22T09:31:04;19.30;;;10.90;;
76552;SDS011;65395;53.168;18.156;2024-03-22T09:33:33;18.10;;;11.00;;
76552;SDS011;65395;53.168;18.156;2024-03-22T09:36:01;17.50;;;10.30;;
76552;SDS011;65395;53.168;18.156;2024-03-22T09:38:28;20.60;;;10.70;;
76552;SDS011;65395;53.168;18.156;2024-03-22T09:40:55;22.00;;;10.70;;
76552;SDS011;65395;53.168;18.156;2024-03-22T09:43:22;19.40;;;10.80;;
76552;SDS011;65395;53.168;18.156;2024-03-22T09:45:51;17.90;;;10.50;;
76552;SDS011;65395;53.168;18.156;2024-03-22T09:48:18;19.90;;;10.70;;
76552;SDS011;65395;53.168;18.156;2024-03-22T09:50:46;19.50;;;10.80;;
76552;SDS011;65395;53.168;18.156;2024-03-22T09:53:18;20.30;;;11.20;;
76552;SDS011;65395;53.168;18.156;2024-03-22T09:55:46;19.10;;;10.60;;
76552;SDS011;65395;53.168;18.156;2024-03-22T09:58:14;20.00;;;11.10;;
76552;SDS011;65395;53.168;18.156;2024-03-22T10:00:43;17.60;;;10.30;;
76552;SDS011;65395;53.168;18.156;2024-03-22T10:03:10;19.40;;;11.40;;
76552;SDS011;65395;53.168;18.156;2024-03-22T10:05:37;19.00;;;11.20;;
76552;SDS011;65395;53.168;18.156;2024-03-22T10:08:04;17.60;;;10.90;;
76552;SDS011;65395;53.168;18.156;2024-03-22T10:10:32;20.30;;;11.40;;
76552;SDS011;65395;53.168;18.156;2024-03-22T10:13:00;20.30;;;11.40;;
76552;SDS011;65395;53.168;18.156;2024-03-22T10:15:27;21.60;;;11.90;;
76552;SDS011;65395;53.168;18.156;2024-03-22T10:17:56;20.90;;;12.00;;
76552;SDS011;65395;53.168;18.156;2024-03-22T10:20:24;22.20;;;12.70;;
76552;SDS011;65395;53.168;18.156;2024-03-22T10:22:58;21.50;;;12.70;;
76552;SDS011;65395;53.168;18.156;2024-03-22T10:25:26;21.80;;;12.20;;
76552;SDS011;65395;53.168;18.156;2024-03-22T10:27:54;21.90;;;12.30;;
76552;SDS011;65395;53.168;18.156;2024-03-22T10:30:22;20.40;;;12.40;;
76552;SDS011;65395;53.168;18.156;2024-03-22T10:32:50;24.00;;;13.40;;
76552;SDS011;65395;53.168;18.156;2024-03-22T10:35:18;23.00;;;12.80;;
76552;SDS011;65395;53.168;18.156;2024-03-22T10:37:45;21.40;;;12.00;;
76552;SDS011;65395;53.168;18.156;2024-03-22T10:40:12;19.60;;;11.90;;
76552;SDS011;65395;53.168;18.156;2024-03-22T10:42:40;20.80;;;12.30;;
76552;SDS011;65395;53.168;18.156;2024-03-22T10:45:09;22.60;;;12.60;;
76552;SDS011;65395;53.168;18.156;2024-03-22T10:47:37;20.80;;;11.70;;
76552;SDS011;65395;53.168;18.156;2024-03-22T10:50:06;18.50;;;11.80;;
76552;SDS011;65395;53.168;18.156;2024-03-22T10:52:38;20.40;;;12.00;;
76552;SDS011;65395;53.168;18.156;2024-03-22T10:55:17;19.30;;;12.30;;
76552;SDS011;65395;53.168;18.156;2024-03-22T10:57:48;20.40;;;11.90;;
76552;SDS011;65395;53.168;18.156;2024-03-22T11:00:15;18.80;;;11.80;;
76552;SDS011;65395;53.168;18.156;2024-03-22T11:02:44;20.90;;;12.90;;
76552;SDS011;65395;53.168;18.156;2024-03-22T11:05:19;20.50;;;12.00;;
76552;SDS011;65395;53.168;18.156;2024-03-22T11:07:46;20.60;;;12.20;;
76552;SDS011;65395;53.168;18.156;2024-03-22T11:10:13;20.20;;;11.30;;
76552;SDS011;65395;53.168;18.156;2024-03-22T11:12:40;17.80;;;10.70;;
76552;SDS011;65395;53.168;18.156;2024-03-22T11:15:08;20.10;;;11.20;;
76552;SDS011;65395;53.168;18.156;2024-03-22T11:17:38;18.10;;;10.80;;
76552;SDS011;65395;53.168;18.156;2024-03-22T11:20:05;19.30;;;10.90;;
76552;SDS011;65395;53.168;18.156;2024-03-22T11:22:32;20.80;;;11.10;;
76552;SDS011;65395;53.168;18.156;2024-03-22T11:24:59;18.80;;;10.40;;
76552;SDS011;65395;53.168;18.156;2024-03-22T11:27:26;22.20;;;10.80;;
76552;SDS011;65395;53.168;18.156;2024-03-22T11:29:53;20.90;;;10.50;;
76552;SDS011;65395;53.168;18.156;2024-03-22T11:32:21;20.70;;;11.20;;
76552;SDS011;65395;53.168;18.156;2024-03-22T11:34:49;19.30;;;10.90;;
76552;SDS011;65395;53.168;18.156;2024-03-22T11:37:15;23.90;;;11.70;;
76552;SDS011;65395;53.168;18.156;2024-03-22T11:39:42;21.80;;;11.50;;
76552;SDS011;65395;53.168;18.156;2024-03-22T11:42:09;23.90;;;11.90;;
76552;SDS011;65395;53.168;18.156;2024-03-22T11:44:37;22.30;;;11.30;;
76552;SDS011;65395;53.168;18.156;2024-03-22T11:47:05;23.10;;;12.00;;
76552;SDS011;65395;53.168;18.156;2024-03-22T11:49:33;24.00;;;12.30;;
76552;SDS011;65395;53.168;18.156;2024-03-22T11:52:02;23.50;;;12.20;;
76552;SDS011;65395;53.168;18.156;2024-03-22T11:54:29;22.90;;;12.80;;
76552;SDS011;65395;53.168;18.156;2024-03-22T11:56:57;25.00;;;11.80;;
76552;SDS011;65395;53.168;18.156;2024-03-22T11:59:24;22.80;;;12.00;;
76552;SDS011;65395;53.168;18.156;2024-03-22T12:01:51;23.90;;;12.80;;
76552;SDS011;65395;53.168;18.156;2024-03-22T12:04:18;22.30;;;11.90;;
76552;SDS011;65395;53.168;18.156;2024-03-22T12:06:45;26.20;;;13.70;;
76552;SDS011;65395;53.168;18.156;2024-03-22T12:09:12;24.40;;;12.30;;
76552;SDS011;65395;53.168;18.156;2024-03-22T12:11:39;22.00;;;12.60;;
76552;SDS011;65395;53.168;18.156;2024-03-22T12:14:07;23.70;;;12.60;;
76552;SDS011;65395;53.168;18.156;2024-03-22T12:16:34;25.20;;;13.10;;
76552;SDS011;65395;53.168;18.156;2024-03-22T12:19:01;23.80;;;13.00;;
76552;SDS011;65395;53.168;18.156;2024-03-22T12:21:28;23.40;;;13.40;;
76552;SDS011;65395;53.168;18.156;2024-03-22T12:23:54;26.70;;;14.70;;
76552;SDS011;65395;53.168;18.156;2024-03-22T12:26:21;28.20;;;15.40;;
76552;SDS011;65395;53.168;18.156;2024-03-22T12:28:48;32.20;;;17.30;;
76552;SDS011;65395;53.168;18.156;2024-03-22T12:31:16;31.00;;;18.00;;
76552;SDS011;65395;53.168;18.156;2024-03-22T12:33:44;35.00;;;18.10;;
76552;SDS011;65395;53.168;18.156;2024-03-22T12:36:10;34.90;;;18.90;;
76552;SDS011;65395;53.168;18.156;2024-03-22T12:38:37;35.40;;;19.90;;
76552;SDS011;65395;53.168;18.156;2024-03-22T12:41:04;34.50;;;19.80;;
76552;SDS011;65395;53.168;18.156;2024-03-22T12:43:32;32.70;;;19.20;;
76552;SDS011;65395;53.168;18.156;2024-03-22T12:45:59;31.60;;;16.90;;
76552;SDS011;65395;53.168;18.156;2024-03-22T12:48:26;26.80;;;15.10;;
76552;SDS011;65395;53.168;18.156;2024-03-22T12:50:53;26.70;;;14.80;;
76552;SDS011;65395;53.168;18.156;2024-03-22T12:53:20;26.60;;;14.40;;
76552;SDS011;65395;53.168;18.156;2024-03-22T12:55:47;26.00;;;14.40;;
76552;SDS011;65395;53.168;18.156;2024-03-22T12:58:14;29.40;;;15.30;;
76552;SDS011;65395;53.168;18.156;2024-03-22T13:00:41;28.00;;;16.30;;
76552;SDS011;65395;53.168;18.156;2024-03-22T13:03:08;29.60;;;16.40;;
76552;SDS011;65395;53.168;18.156;2024-03-22T13:05:36;25.60;;;15.10;;
76552;SDS011;65395;53.168;18.156;2024-03-22T13:08:03;24.80;;;14.30;;
76552;SDS011;65395;53.168;18.156;2024-03-22T13:10:30;25.30;;;14.00;;
76552;SDS011;65395;53.168;18.156;2024-03-22T13:12:57;25.00;;;13.60;;
76552;SDS011;65395;53.168;18.156;2024-03-22T13:15:24;22.70;;;14.20;;
76552;SDS011;65395;53.168;18.156;2024-03-22T13:17:51;23.00;;;13.20;;
76552;SDS011;65395;53.168;18.156;2024-03-22T13:20:21;27.00;;;14.20;;
76552;SDS011;65395;53.168;18.156;2024-03-22T13:22:48;24.10;;;13.10;;
76552;SDS011;65395;53.168;18.156;2024-03-22T13:25:15;24.90;;;13.00;;
76552;SDS011;65395;53.168;18.156;2024-03-22T13:27:42;24.30;;;13.10;;
76552;SDS011;65395;53.168;18.156;2024-03-22T13:30:09;24.80;;;12.50;;
76552;SDS011;65395;53.168;18.156;2024-03-22T13:32:37;24.50;;;13.70;;
76552;SDS011;65395;53.168;18.156;2024-03-22T13:35:05;22.60;;;12.00;;
76552;SDS011;65395;53.168;18.156;2024-03-22T13:37:32;22.80;;;12.70;;
76552;SDS011;65395;53.168;18.156;2024-03-22T13:39:59;22.70;;;13.50;;
76552;SDS011;65395;53.168;18.156;2024-03-22T13:42:26;22.00;;;12.40;;
76552;SDS011;65395;53.168;18.156;2024-03-22T13:44:53;24.10;;;13.40;;
76552;SDS011;65395;53.168;18.156;2024-03-22T13:47:20;25.60;;;13.50;;
76552;SDS011;65395;53.168;18.156;2024-03-22T13:49:47;25.90;;;13.00;;
76552;SDS011;65395;53.168;18.156;2024-03-22T13:52:14;25.70;;;13.10;;
76552;SDS011;65395;53.168;18.156;2024-03-22T13:54:41;25.60;;;13.60;;
76552;SDS011;65395;53.168;18.156;2024-03-22T13:57:07;24.00;;;13.40;;
76552;SDS011;65395;53.168;18.156;2024-03-22T13:59:34;21.50;;;12.10;;
76552;SDS011;65395;53.168;18.156;2024-03-22T14:02:02;22.20;;;12.00;;
76552;SDS011;65395;53.168;18.156;2024-03-22T14:04:29;26.70;;;13.00;;
76552;SDS011;65395;53.168;18.156;2024-03-22T14:06:56;24.50;;;12.10;;
76552;SDS011;65395;53.168;18.156;2024-03-22T14:09:23;21.40;;;12.80;;